Terminal Aerodrome Forecast
Issued by NWS

Home | Current Version | Previous Version | Graphics & Text | Print | Product List | Glossary Off
Versions: 1 2 3 4 5 6 7 8 9 10 11 12 13 14 15 16 17

000
FTUS43 KICT 171700
TAFCNU
TAF
KCNU 171720Z 1718/1818 25010KT P6SM SCT035
     FM172100 35007KT P6SM BKN040
     FM180300 05010KT 5SM BR SCT100
      TEMPO 1809/1813 3SM BR BKN008
     FM181500 08008KT P6SM SCT007 BKN015=

USA.gov is the U.S. government's official web portal to all federal, state and local government web resources and services.